Portada
METAR-TAF:

METAR-TAF

Aeroports :

Sanandaj, Iran

latitud: 35-20N, longitud: 047-00E, altitud: 1373 m

Observació

L'informe es va fer fa 45 minuts, a les 22:00 UTC
Vent calma
Temperatura 1°C
Humitat 69%
Pressió 1024 hPa
Visibilitat 10 km o més
sense núvols per sota de 1500 mi sense presència de cumulonimbus.

METAR: OICS 132200Z 00000KT CAVOK 01/M04 Q1024 A3024

Hora: 02:15 (22:45 UTC)


TAF: manca

Observacions i pronòstics meteorològics de més de 4000 aeroports (METAR i TAF).

Les estacions disponibles són els punts grocs i vermells al mapa.

Posi el ratolí al punt desitjat per veure el nom de l'estació.

Feu clic per veure les observacions i els pronòstics meteorològics.

Per canviar el mapa: feu clic els botons verds amb una creu de color negre per apropar; al botó verd amb un guió per allunyar la imatge; o en les fletxes verdes per a mapes adjacents.


METAR-TAF: